Vremea acum in Câmpeni - Romania

Vrei sa afli care e starea vremii acum in Alba - Romania? Dorim sa iti furnizam starea vremii pentru Alba - Romania. Starea vremii Alba - Romania pentru astazi.

Vremea acum in Câmpeni

Temperatura: 5.9 °C

Este: Ceata
Se simte ca: 5.4 °C
Innorat: 32 %
Precipitatii: 0 %
Presiune atmosferica: 1018 hPa
Umiditate: 95%
Vizibilitate: 2 km
Vantul bate din N cu 4.3 km/h

Evolutia vremii in Câmpeni pe ore

Ora: 03:00
Ceata
Temperatura: 5.3°C
Sansa de precipitatii: 0%
Ora Descriere Temp Se simte Precipitatii Umiditate Vant
00:00Ceata6.2°5.9°0%95%N 4 KM/H
01:00Ceata5.9°5.4°0%95%N 4.3 KM/H
02:00Ceata5.6°4.9°0%95%N 4.7 KM/H
03:00Ceata5.3°4.5°0%94%N 5 KM/H
04:00Senin5.2°4.2°0%93%N 5 KM/H
05:00Senin4.9°0%91%N 5 KM/H
06:00Senin4.7°3.7°0%91%N 5 KM/H
07:00Senin5.6°4.9°0%89%N 4.7 KM/H
08:00Senin10.2°10.2°0%82%N 2.5 KM/H
09:00Senin13.1°13.1°0%70%WNW 2.9 KM/H
10:00Senin15.1°15.1°0%56%W 4.7 KM/H
11:00Patchy rain nearby16.9°16.9°89%46%W 6.1 KM/H
12:00Patchy rain nearby17.7°17.7°100%44%W 9 KM/H
13:00Burniță ușoară17.5°17.5°100%49%W 11.9 KM/H
14:00Patchy rain nearby16.9°16.9°100%53%WNW 9 KM/H
15:00Burniță ușoară17°17°100%56%WNW 7.9 KM/H
16:00Patchy rain nearby16.3°16.3°100%61%WNW 9 KM/H
17:00Patchy rain nearby16.5°16.5°100%59%WNW 7.6 KM/H
18:00Patchy rain nearby16.6°16.6°100%59%WNW 8.3 KM/H
19:00Patchy rain nearby15.6°15.6°100%66%WNW 6.5 KM/H
20:00Patchy rain nearby11.1°11.6°76%75%NW 3.2 KM/H
21:00Patchy rain nearby9.3°81%80%NNE 3.2 KM/H
22:00Senin8.3°7.9°0%82%NE 4.7 KM/H
23:00Senin7.1°6.6°0%87%NE 4.7 KM/H




tutorials